Time;durP1;ratioP1;P1;durP2;ratioP2;P2;SDS_P1;SDS_P2;PMS_P1;PMS_P2;Temp;Humidity;BMP_temperature;BMP_pressure;BME280_temperature;BME280_humidity;BME280_pressure;Samples;Min_cycle;Max_cycle;Signal;HPM_P1;HPM_P2
2023/03/13 00:01:37;;;;;;;13.50;1.40;;;;;;;2.81;48.89;97997.56;5044282;28;19919;-65
2023/03/13 00:04:03;;;;;;;2.67;1.23;;;;;;;2.62;49.01;98005.53;5061085;28;20399;-66
2023/03/13 00:06:32;;;;;;;0.90;0.90;;;;;;;2.86;48.58;98016.25;5094534;28;20047;-67
2023/03/13 00:09:01;;;;;;;1.83;1.20;;;;;;;2.80;48.22;98016.84;5061202;28;20039;-66
2023/03/13 00:11:27;;;;;;;3.30;1.30;;;;;;;2.78;47.95;98013.53;5078630;28;20055;-66
2023/03/13 00:13:54;;;;;;;1.03;0.93;;;;;;;2.91;47.46;98015.81;5044667;28;20043;-65
2023/03/13 00:16:22;;;;;;;1.87;1.10;;;;;;;2.89;47.52;98021.19;5077661;28;20048;-65
2023/03/13 00:18:49;;;;;;;1.53;1.13;;;;;;;2.84;47.27;98031.31;5044177;28;20039;-66
2023/03/13 00:21:17;;;;;;;1.60;1.40;;;;;;;2.92;47.12;98034.00;5044281;28;20043;-66
2023/03/13 00:23:43;;;;;;;1.30;1.20;;;;;;;2.97;47.75;98026.53;5060848;28;20118;-66
2023/03/13 00:26:11;;;;;;;1.93;1.33;;;;;;;3.21;47.61;98045.09;5044122;28;20039;-66
2023/03/13 00:28:39;;;;;;;1.00;1.00;;;;;;;2.94;47.35;98026.81;5077731;28;20479;-66
2023/03/13 00:31:09;;;;;;;3.23;1.17;;;;;;;3.28;47.47;98048.78;5077680;28;20047;-66
2023/03/13 00:33:38;;;;;;;1.85;1.30;;;;;;;3.07;47.16;98039.56;5060918;28;20086;-66
2023/03/13 00:36:13;;;;;;;2.40;1.23;;;;;;;3.25;47.52;98053.50;5094180;28;20035;-66
2023/03/13 00:38:39;;;;;;;1.30;1.17;;;;;;;2.92;46.83;98054.19;5077708;28;20520;-66
2023/03/13 00:41:13;;;;;;;1.20;1.10;;;;;;;3.07;47.05;98057.94;5094450;28;20052;-66
2023/03/13 00:43:41;;;;;;;1.60;1.20;;;;;;;2.80;47.36;98048.31;5043958;28;20051;-65
2023/03/13 00:46:08;;;;;;;1.70;1.43;;;;;;;2.81;47.61;98062.25;5060560;28;20479;-66
2023/03/13 00:48:34;;;;;;;1.30;1.20;;;;;;;2.73;47.10;98075.25;5060876;28;20081;-65
2023/03/13 00:51:01;;;;;;;4.17;1.73;;;;;;;2.72;47.47;98079.66;5044228;28;20544;-66
2023/03/13 00:53:27;;;;;;;1.80;1.10;;;;;;;2.61;47.22;98081.69;5044553;28;20043;-65
2023/03/13 00:56:03;;;;;;;1.97;1.20;;;;;;;2.84;47.30;98075.06;5044294;28;20455;-65
2023/03/13 00:58:31;;;;;;;1.63;1.30;;;;;;;2.71;47.50;98092.91;5078069;28;20044;-65
2023/03/13 01:01:05;;;;;;;1.40;1.20;;;;;;;2.73;47.89;98097.06;5044120;28;20109;-65
2023/03/13 01:03:32;;;;;;;3.63;1.40;;;;;;;2.33;47.48;98087.88;5077837;28;20067;-66
2023/03/13 01:06:03;;;;;;;1.43;1.30;;;;;;;2.54;47.65;98084.06;5044647;28;20042;-70
2023/03/13 01:08:29;;;;;;;1.20;1.10;;;;;;;2.60;47.44;98096.56;5060944;28;20044;-65
2023/03/13 01:10:58;;;;;;;1.30;1.20;;;;;;;2.62;48.18;98105.13;5044414;28;20089;-65
2023/03/13 01:13:24;;;;;;;1.50;1.20;;;;;;;2.28;48.14;98113.66;5043978;28;20046;-66
2023/03/13 01:15:50;;;;;;;1.70;1.20;;;;;;;2.28;48.19;98118.91;5060142;28;20044;-65
2023/03/13 01:18:18;;;;;;;1.60;1.20;;;;;;;2.43;48.34;98120.09;5061335;28;20391;-65
2023/03/13 01:20:44;;;;;;;1.77;1.10;;;;;;;2.42;48.23;98124.50;5064497;28;20104;-65
2023/03/13 01:23:09;;;;;;;1.40;1.30;;;;;;;2.35;47.96;98130.47;5047532;28;20483;-65
2023/03/13 01:25:37;;;;;;;1.30;1.20;;;;;;;2.58;47.85;98145.69;5047574;28;20104;-65
2023/03/13 01:28:04;;;;;;;3.90;1.43;;;;;;;2.51;47.74;98152.47;5064246;28;20046;-65
2023/03/13 01:30:30;;;;;;;2.40;1.50;;;;;;;2.36;47.47;98148.66;5097628;28;20467;-65
2023/03/13 01:32:56;;;;;;;1.03;1.00;;;;;;;2.26;47.77;98145.25;5064027;28;20043;-65
2023/03/13 01:35:22;;;;;;;1.70;1.30;;;;;;;2.23;48.05;98152.56;5064010;28;20388;-65
2023/03/13 01:37:47;;;;;;;1.73;1.40;;;;;;;2.12;47.89;98161.44;5047274;28;20055;-65
2023/03/13 01:40:14;;;;;;;1.20;1.10;;;;;;;2.06;48.22;98164.59;5080817;28;20552;-65
2023/03/13 01:42:55;;;;;;;3.17;1.50;;;;;;;2.51;48.30;98170.81;5063947;28;20044;-66
2023/03/13 01:45:50;;;;;;;1.90;1.27;;;;;;;2.37;48.70;98170.47;5080841;28;20840;-64
2023/03/13 01:48:16;;;;;;;1.47;1.30;;;;;;;1.92;48.43;98183.38;5063834;28;20036;-64
2023/03/13 01:50:47;;;;;;;1.57;1.20;;;;;;;1.88;48.45;98195.06;5065395;28;20436;-64
2023/03/13 01:53:24;;;;;;;2.10;1.47;;;;;;;2.06;48.81;98200.44;5083200;28;20058;-65
2023/03/13 01:55:51;;;;;;;1.23;1.13;;;;;;;1.90;49.36;98211.47;5046853;28;20051;-64
2023/03/13 01:58:17;;;;;;;1.33;1.23;;;;;;;1.88;49.01;98210.78;5047074;28;20126;-65
2023/03/13 02:00:45;;;;;;;2.53;1.20;;;;;;;2.08;48.93;98204.56;5063513;28;20151;-64
2023/03/13 02:03:14;;;;;;;1.67;1.20;;;;;;;2.05;48.89;98212.69;5063485;28;20040;-64
2023/03/13 02:05:41;;;;;;;2.58;1.13;;;;;;;1.76;48.99;98219.72;5047526;28;20503;-65
2023/03/13 02:08:24;;;;;;;1.90;1.30;;;;;;;1.95;49.18;98230.22;5063426;28;20039;-65
2023/03/13 02:10:55;;;;;;;7.23;1.30;;;;;;;1.71;49.95;98228.00;5046400;28;20503;-64
2023/03/13 02:13:21;;;;;;;1.70;1.40;;;;;;;1.54;49.74;98228.66;5063407;28;20360;-64
2023/03/13 02:15:47;;;;;;;1.30;1.20;;;;;;;1.55;49.60;98238.16;5063290;28;20043;-65
2023/03/13 02:18:16;;;;;;;1.80;1.30;;;;;;;1.56;49.55;98244.22;5080292;28;20471;-64
2023/03/13 02:20:42;;;;;;;5.17;1.40;;;;;;;1.54;49.58;98252.22;5063115;28;20065;-65
2023/03/13 02:23:31;;;;;;;1.93;1.60;;;;;;;2.03;49.59;98251.25;5046993;28;20051;-65
2023/03/13 02:25:58;;;;;;;1.87;1.40;;;;;;;1.52;49.80;98256.75;5046341;28;20534;-65
2023/03/13 02:28:34;;;;;;;1.50;1.30;;;;;;;1.74;49.58;98266.13;5097059;28;20142;-65
2023/03/13 02:31:03;;;;;;;2.57;1.30;;;;;;;1.38;49.63;98272.00;5063035;28;20047;-64
2023/03/13 02:33:33;;;;;;;1.40;1.30;;;;;;;1.27;50.65;98266.88;5063033;28;20039;-64
2023/03/13 02:36:00;;;;;;;1.30;1.20;;;;;;;1.09;51.20;98271.09;5062966;28;20075;-65
2023/03/13 02:38:28;;;;;;;1.77;1.47;;;;;;;1.36;50.71;98284.38;5079975;28;20398;-65
2023/03/13 02:40:54;;;;;;;1.37;1.27;;;;;;;1.14;51.15;98287.19;5079471;28;20468;-65
2023/03/13 02:43:29;;;;;;;1.93;1.43;;;;;;;1.42;51.08;98294.31;5063013;28;20108;-65
2023/03/13 02:46:00;;;;;;;2.00;1.10;;;;;;;1.54;50.77;98290.63;5062933;28;20043;-65
2023/03/13 02:48:33;;;;;;;2.10;1.20;;;;;;;1.43;50.70;98295.97;5046227;28;20039;-65
2023/03/13 02:50:59;;;;;;;2.23;1.40;;;;;;;1.23;50.75;98296.88;5097403;28;20105;-65
2023/03/13 02:53:25;;;;;;;1.67;1.20;;;;;;;0.58;51.66;98310.34;5042634;28;20119;-65
2023/03/13 02:55:51;;;;;;;1.10;1.10;;;;;;;0.77;51.50;98313.03;5058943;28;20483;-65
2023/03/13 02:58:17;;;;;;;2.23;1.30;;;;;;;1.09;51.07;98316.34;5026250;28;20044;-65
2023/03/13 03:00:46;;;;;;;1.37;1.27;;;;;;;1.12;50.86;98307.44;5059722;28;20056;-65
2023/03/13 03:03:12;;;;;;;3.50;1.63;;;;;;;0.98;50.87;98323.47;5042578;28;20059;-66
2023/03/13 03:05:38;;;;;;;2.50;1.90;;;;;;;0.86;51.41;98317.47;5042325;28;20344;-66
2023/03/13 03:08:05;;;;;;;1.23;1.13;;;;;;;1.17;51.37;98332.22;5042634;28;20152;-66
2023/03/13 03:10:31;;;;;;;3.30;1.30;;;;;;;1.01;51.19;98331.03;5058727;28;20063;-65
2023/03/13 03:12:58;;;;;;;1.80;1.60;;;;;;;1.31;50.86;98331.03;5058923;28;20043;-65
2023/03/13 03:15:24;;;;;;;1.50;1.40;;;;;;;1.06;50.97;98334.09;5058758;28;20048;-65
2023/03/13 03:17:51;;;;;;;2.43;1.50;;;;;;;1.08;50.52;98332.16;5058740;28;20056;-65
2023/03/13 03:20:17;;;;;;;1.63;1.53;;;;;;;1.06;50.64;98339.34;5042044;28;20528;-63
2023/03/13 03:22:43;;;;;;;1.40;1.30;;;;;;;1.13;50.70;98341.28;5058477;28;20044;-65
2023/03/13 03:25:09;;;;;;;2.13;1.50;;;;;;;1.11;50.68;98345.81;5058269;28;20055;-64
2023/03/13 03:27:35;;;;;;;2.07;1.60;;;;;;;0.97;50.84;98351.38;5058779;28;20040;-62
2023/03/13 03:30:04;;;;;;;1.30;1.20;;;;;;;1.15;50.58;98355.03;5042530;28;20067;-63
2023/03/13 03:32:32;;;;;;;2.60;1.50;;;;;;;0.89;51.02;98355.63;5025868;28;20043;-63
2023/03/13 03:34:58;;;;;;;1.70;1.60;;;;;;;0.94;51.09;98356.06;5058110;28;20236;-62
2023/03/13 03:37:25;;;;;;;1.50;1.40;;;;;;;0.87;51.18;98360.13;5041905;28;20093;-64
2023/03/13 03:39:51;;;;;;;2.97;1.50;;;;;;;0.65;51.36;98371.53;5058159;28;20058;-65
2023/03/13 03:42:17;;;;;;;2.47;1.60;;;;;;;0.84;51.62;98371.69;5041033;28;20554;-65
2023/03/13 03:44:42;;;;;;;3.47;1.50;;;;;;;0.88;50.97;98382.69;5024976;28;20044;-65
2023/03/13 03:47:11;;;;;;;1.00;1.00;;;;;;;0.56;51.27;98387.13;5057777;28;20036;-69
2023/03/13 03:49:41;;;;;;;;;;;;;;;1.29;51.75;98382.66;5043077;28;20856;-65
2023/03/13 03:52:09;;;;;;;4.13;1.70;;;;;;;0.79;51.42;98389.50;5074389;28;19920;-70
2023/03/13 03:54:38;;;;;;;1.70;1.43;;;;;;;0.68;51.63;98381.75;5039714;28;20354;-65
2023/03/13 03:57:04;;;;;;;2.10;1.63;;;;;;;0.88;51.38;98380.06;5056439;28;20142;-66
2023/03/13 03:59:30;;;;;;;2.13;1.50;;;;;;;0.83;51.17;98385.69;5017091;28;20036;-66
2023/03/13 04:02:05;;;;;;;1.90;1.47;;;;;;;0.80;51.31;98395.59;5054366;28;20113;-66
2023/03/13 04:04:32;;;;;;;3.73;1.90;;;;;;;0.87;51.20;98388.88;5031198;28;20039;-68
2023/03/13 04:07:25;;;;;;;3.03;1.60;;;;;;;0.79;50.78;98399.97;5058978;28;20391;-65
2023/03/13 04:09:53;;;;;;;3.37;1.60;;;;;;;0.74;51.63;98401.31;5045097;28;20182;-66
2023/03/13 04:12:25;;;;;;;2.10;1.67;;;;;;;0.82;50.93;98411.94;5030730;28;20048;-66
2023/03/13 04:14:53;;;;;;;3.17;1.47;;;;;;;0.76;51.36;98420.28;5037260;28;20055;-65
2023/03/13 04:17:20;;;;;;;3.23;2.00;;;;;;;0.50;51.45;98412.00;5042570;28;20090;-66
2023/03/13 04:19:46;;;;;;;5.90;1.73;;;;;;;0.55;51.65;98409.00;5038056;28;20035;-66
2023/03/13 04:22:12;;;;;;;2.03;1.70;;;;;;;0.74;51.27;98419.59;5013210;28;20040;-67
2023/03/13 04:24:44;;;;;;;4.33;2.33;;;;;;;0.53;51.38;98416.13;5038030;28;20584;-66
2023/03/13 04:30:11;;;;;;;4.10;1.73;;;;;;;0.38;52.25;98433.88;5068585;28;20483;-69
2023/03/13 04:32:43;;;;;;;4.03;1.77;;;;;;;0.39;52.69;98432.09;5061385;28;20044;-67
2023/03/13 04:35:24;;;;;;;1.87;1.70;;;;;;;0.74;51.51;98448.34;5051844;28;20051;-67
2023/03/13 04:38:09;;;;;;;3.27;1.80;;;;;;;0.75;51.79;98444.78;5033745;28;20040;-65
2023/03/13 04:40:50;;;;;;;;;;;;;;;0.85;52.32;98446.50;5041780;28;20032;-65
2023/03/13 04:43:38;;;;;;;7.33;1.67;;;;;;;0.67;51.93;98457.63;5029435;28;20264;-68
2023/03/13 04:46:11;;;;;;;2.30;1.90;;;;;;;0.71;52.04;98469.50;5029961;28;20136;-69
2023/03/13 04:49:06;;;;;;;2.67;1.50;;;;;;;0.80;51.27;98479.19;5057080;28;20499;-65
2023/03/13 04:51:51;;;;;;;1.83;1.50;;;;;;;0.96;50.85;98490.03;5043352;28;20040;-66
2023/03/13 04:54:34;;;;;;;3.40;1.80;;;;;;;0.91;51.27;98493.03;5059722;28;20502;-68
2023/03/13 04:57:19;;;;;;;1.50;1.40;;;;;;;1.02;50.55;98497.38;5058208;28;20822;-65
2023/03/13 05:00:06;;;;;;;3.10;1.33;;;;;;;1.36;50.73;98497.06;5061461;28;20067;-66
2023/03/13 05:02:58;;;;;;;1.73;1.63;;;;;;;1.22;50.40;98527.94;5057682;28;20048;-65
2023/03/13 05:05:46;;;;;;;2.33;1.60;;;;;;;1.23;50.49;98527.00;5080051;28;20126;-65
2023/03/13 05:08:39;;;;;;;1.57;1.40;;;;;;;1.32;50.02;98531.47;5047476;28;20138;-72
2023/03/13 05:11:26;;;;;;;3.10;1.80;;;;;;;1.50;49.84;98527.28;5031601;28;20093;-65
2023/03/13 05:14:11;;;;;;;2.23;1.50;;;;;;;1.48;49.62;98537.06;5062694;28;20043;-65
2023/03/13 05:16:48;;;;;;;2.20;1.53;;;;;;;1.44;49.41;98544.34;5044946;28;20055;-67
2023/03/13 05:19:43;;;;;;;2.83;1.70;;;;;;;1.45;50.16;98546.00;5021968;28;20578;-66
2023/03/13 05:22:21;;;;;;;2.60;2.00;;;;;;;1.62;49.62;98550.66;5044882;28;20040;-65
2023/03/13 05:25:05;;;;;;;1.30;1.20;;;;;;;1.40;49.78;98544.69;5047572;28;20399;-65
2023/03/13 05:27:50;;;;;;;2.67;1.50;;;;;;;1.47;49.68;98557.16;5048248;28;20519;-69
2023/03/13 05:30:34;;;;;;;1.70;1.37;;;;;;;1.63;49.28;98554.06;5048217;28;20044;-66
2023/03/13 05:33:20;;;;;;;2.00;1.80;;;;;;;1.50;49.51;98566.53;5051676;28;20387;-66
2023/03/13 05:36:09;;;;;;;1.97;1.40;;;;;;;1.55;49.71;98567.00;5049368;28;20076;-66
2023/03/13 05:38:53;;;;;;;1.40;1.30;;;;;;;1.60;48.78;98575.25;5044819;28;20420;-66
2023/03/13 05:41:57;;;;;;;1.60;1.50;;;;;;;1.78;48.40;98564.09;5013705;28;20053;-65
2023/03/13 05:44:23;;;;;;;2.43;1.50;;;;;;;1.85;48.36;98567.03;5005478;28;20051;-65
2023/03/13 05:47:01;;;;;;;2.77;1.30;;;;;;;1.83;48.37;98562.88;5014538;28;20048;-67
2023/03/13 05:49:27;;;;;;;1.50;1.40;;;;;;;2.17;47.50;98580.81;5046840;28;20043;-66
2023/03/13 05:51:59;;;;;;;1.37;1.27;;;;;;;2.30;47.24;98577.97;5048883;28;20426;-68
2023/03/13 05:54:50;;;;;;;1.57;1.20;;;;;;;2.48;47.30;98592.09;5036539;28;20076;-66
2023/03/13 05:57:34;;;;;;;2.87;1.70;;;;;;;2.48;47.04;98611.28;5055294;28;20073;-68
2023/03/13 06:00:47;;;;;;;2.50;1.60;;;;;;;2.91;46.70;98597.88;5050846;28;20040;-62
2023/03/13 06:03:43;;;;;;;8.63;1.47;;;;;;;2.62;46.21;98603.06;5029244;28;20062;-65
2023/03/13 06:06:11;;;;;;;1.40;1.10;;;;;;;2.47;46.19;98607.00;5018028;28;20090;-67
2023/03/13 06:08:43;;;;;;;1.50;1.33;;;;;;;2.48;45.93;98621.75;5027324;28;20138;-63
2023/03/13 06:11:09;;;;;;;1.77;1.37;;;;;;;2.69;46.03;98612.03;5045059;28;20047;-68
2023/03/13 06:13:35;;;;;;;1.73;1.40;;;;;;;2.57;45.79;98620.16;5035349;28;20384;-67
2023/03/13 06:16:09;;;;;;;2.03;1.33;;;;;;;2.72;45.49;98617.00;5027239;28;20045;-67
2023/03/13 06:18:47;;;;;;;2.13;1.43;;;;;;;3.02;45.01;98616.94;5034177;28;20049;-66
2023/03/13 06:21:13;;;;;;;2.67;1.20;;;;;;;2.57;45.59;98622.78;5027269;28;20036;-67
2023/03/13 06:23:38;;;;;;;4.23;1.50;;;;;;;3.14;45.22;98621.09;5037757;28;20040;-67
2023/03/13 06:26:04;;;;;;;2.63;1.67;;;;;;;3.23;44.41;98619.44;5009451;28;20056;-64
2023/03/13 06:28:30;;;;;;;2.53;1.30;;;;;;;3.30;44.39;98629.28;5021294;28;20045;-68
2023/03/13 06:31:01;;;;;;;3.63;1.40;;;;;;;3.61;44.63;98629.97;5003458;28;20041;-66
2023/03/13 06:33:27;;;;;;;2.58;1.30;;;;;;;3.71;44.08;98637.81;5026879;28;20179;-67
2023/03/13 06:35:52;;;;;;;2.23;1.30;;;;;;;3.25;43.80;98638.50;5027797;28;20143;-66
2023/03/13 06:38:18;;;;;;;2.03;1.30;;;;;;;3.61;43.56;98640.47;4994805;28;20076;-65
2023/03/13 06:40:44;;;;;;;2.27;1.50;;;;;;;3.83;43.37;98648.03;5017992;28;20773;-64
2023/03/13 06:43:10;;;;;;;2.00;1.50;;;;;;;4.06;42.70;98656.47;5027807;28;20040;-74
2023/03/13 06:45:39;;;;;;;2.23;1.40;;;;;;;4.03;42.58;98646.22;5028790;28;20036;-64
2023/03/13 06:48:04;;;;;;;3.43;1.60;;;;;;;3.87;42.74;98649.44;5009472;28;20345;-64
2023/03/13 06:50:30;;;;;;;2.43;1.60;;;;;;;3.43;43.05;98653.44;5011174;28;20040;-68
2023/03/13 06:52:56;;;;;;;1.87;1.40;;;;;;;3.93;42.67;98651.50;5034003;28;20041;-64
2023/03/13 06:55:23;;;;;;;3.67;1.40;;;;;;;4.65;41.65;98651.69;5050526;28;20056;-67
2023/03/13 06:57:52;;;;;;;3.10;1.40;;;;;;;5.18;41.67;98657.94;5027472;28;20040;-65
2023/03/13 07:00:19;;;;;;;2.60;1.50;;;;;;;5.50;41.02;98654.81;5043633;28;20061;-65
2023/03/13 07:02:45;;;;;;;2.33;1.30;;;;;;;5.34;39.87;98662.53;5034197;28;20099;-65
2023/03/13 07:05:10;;;;;;;6.13;1.40;;;;;;;5.40;39.35;98668.03;5034612;28;20044;-69
2023/03/13 07:07:36;;;;;;;3.97;1.50;;;;;;;4.55;39.70;98664.06;5051692;28;20430;-65
2023/03/13 07:10:03;;;;;;;2.20;1.50;;;;;;;4.44;40.52;98659.81;5041361;28;20059;-66
2023/03/13 07:12:29;;;;;;;2.60;1.70;;;;;;;5.01;40.65;98664.00;5025311;28;20037;-65
2023/03/13 07:14:55;;;;;;;2.50;1.63;;;;;;;5.55;39.94;98665.72;5026220;28;20102;-64
2023/03/13 07:17:21;;;;;;;3.37;1.60;;;;;;;5.94;38.89;98653.91;5051490;28;20036;-66
2023/03/13 07:19:47;;;;;;;4.33;1.40;;;;;;;6.10;37.59;98673.31;5017171;28;20041;-65
2023/03/13 07:22:13;;;;;;;2.07;1.40;;;;;;;6.80;37.19;98683.66;5018634;28;20464;-68
2023/03/13 07:24:38;;;;;;;3.07;1.50;;;;;;;6.92;36.10;98670.19;5016672;28;20147;-65
2023/03/13 07:27:04;;;;;;;1.83;1.40;;;;;;;7.55;35.84;98687.22;5016165;28;20040;-67
2023/03/13 07:29:31;;;;;;;3.13;1.87;;;;;;;7.43;35.39;98664.72;5013871;28;20048;-68
2023/03/13 07:31:57;;;;;;;2.07;1.50;;;;;;;7.65;33.60;98699.28;5003156;28;20055;-66
2023/03/13 07:34:23;;;;;;;2.15;1.95;;;;;;;10.80;32.25;98692.50;4999292;28;20466;-67
2023/03/13 07:36:48;;;;;;;2.75;1.52;;;;;;;12.97;29.33;98698.91;5000770;28;20052;-67
2023/03/13 07:39:14;;;;;;;3.42;1.40;;;;;;;13.43;28.86;98697.34;4983918;28;20558;-66
2023/03/13 07:41:41;;;;;;;2.08;1.27;;;;;;;15.38;26.32;98695.84;5001564;28;20049;-66
2023/03/13 07:44:07;;;;;;;1.73;1.10;;;;;;;15.09;24.75;98697.13;5001504;28;20531;-66
2023/03/13 07:46:33;;;;;;;2.38;1.23;;;;;;;13.75;24.74;98708.31;5001513;28;20040;-66
2023/03/13 07:48:59;;;;;;;3.03;1.20;;;;;;;12.92;26.24;98689.84;5001182;28;20137;-66
2023/03/13 07:51:26;;;;;;;1.65;1.50;;;;;;;13.05;27.97;98700.63;5001125;28;20546;-68
2023/03/13 07:53:52;;;;;;;2.53;1.33;;;;;;;12.03;27.10;98717.19;5001023;28;20056;-68
2023/03/13 07:56:20;;;;;;;1.90;1.30;;;;;;;12.04;28.72;98705.53;5017322;28;20121;-66
2023/03/13 07:58:46;;;;;;;3.80;1.50;;;;;;;10.59;28.05;98729.56;5017914;28;20045;-66
2023/03/13 08:01:38;;;;;;;1.60;1.42;;;;;;;9.71;30.43;98721.25;4999808;28;20122;-68
2023/03/13 08:04:04;;;;;;;3.38;1.70;;;;;;;10.77;29.48;98732.69;5037105;28;20040;-66
2023/03/13 08:06:32;;;;;;;2.70;1.55;;;;;;;14.09;28.70;98721.56;5020647;28;20094;-66
2023/03/13 08:08:58;;;;;;;4.13;1.42;;;;;;;14.68;26.83;98730.50;5020437;28;20041;-66
2023/03/13 08:11:25;;;;;;;3.67;1.20;;;;;;;13.94;26.92;98720.91;5003907;28;20049;-69
2023/03/13 08:13:52;;;;;;;2.28;1.23;;;;;;;13.03;27.76;98724.81;5020125;28;20139;-66
2023/03/13 08:16:20;;;;;;;1.63;1.20;;;;;;;12.32;28.36;98716.22;5037015;28;20044;-66
2023/03/13 08:18:48;;;;;;;2.15;1.13;;;;;;;12.23;28.33;98718.22;5036951;28;20044;-66
2023/03/13 08:21:20;;;;;;;3.15;1.40;;;;;;;14.25;27.45;98737.25;5020784;28;20075;-67
2023/03/13 08:23:46;;;;;;;2.08;1.13;;;;;;;14.03;24.69;98746.41;5036825;28;20126;-66
2023/03/13 08:26:18;;;;;;;2.63;1.58;;;;;;;15.71;25.41;98747.41;5036641;28;20059;-67
2023/03/13 08:28:45;;;;;;;1.45;1.20;;;;;;;14.76;25.00;98723.06;5036950;28;20194;-67
2023/03/13 08:31:14;;;;;;;4.25;1.48;;;;;;;16.07;24.53;98723.50;5036228;28;20040;-66
2023/03/13 08:33:42;;;;;;;1.58;1.27;;;;;;;12.71;24.92;98737.88;5020470;28;20369;-66
2023/03/13 08:36:18;;;;;;;1.65;1.45;;;;;;;11.53;26.98;98736.63;5053305;28;20105;-66
2023/03/13 08:38:45;;;;;;;1.40;1.13;;;;;;;14.10;26.17;98732.03;5036789;28;20424;-66
2023/03/13 08:41:13;;;;;;;1.40;1.05;;;;;;;14.76;24.82;98741.78;5020481;28;20436;-66
2023/03/13 08:43:39;;;;;;;2.08;1.27;;;;;;;14.32;25.18;98746.06;5070490;28;20056;-66
2023/03/13 08:46:05;;;;;;;3.42;1.30;;;;;;;13.71;25.91;98739.94;5020458;28;20058;-66
2023/03/13 08:48:30;;;;;;;8.23;1.65;;;;;;;12.49;27.14;98729.09;5052897;28;20051;-66
2023/03/13 08:51:05;;;;;;;1.20;1.00;;;;;;;12.22;27.04;98729.88;5003699;28;20131;-66
2023/03/13 08:53:32;;;;;;;2.17;1.27;;;;;;;10.63;28.94;98741.47;5070389;28;20055;-66
2023/03/13 08:55:58;;;;;;;2.20;1.17;;;;;;;10.96;29.32;98746.28;5036395;28;20134;-67
2023/03/13 08:58:27;;;;;;;3.40;1.58;;;;;;;11.56;28.80;98757.53;5003480;28;20511;-66
2023/03/13 09:00:53;;;;;;;5.70;1.40;;;;;;;12.33;27.21;98760.50;5019833;28;20477;-66
2023/03/13 09:03:19;;;;;;;1.60;1.33;;;;;;;9.69;30.57;98751.56;5036450;28;20044;-65
2023/03/13 09:05:46;;;;;;;3.35;1.50;;;;;;;8.66;32.19;98766.81;5003446;28;20051;-66
2023/03/13 09:08:13;;;;;;;2.53;1.75;;;;;;;9.00;31.65;98748.84;5020010;28;20052;-69
2023/03/13 09:10:38;;;;;;;4.93;1.60;;;;;;;9.53;32.00;98749.00;5003149;28;20481;-66
2023/03/13 09:13:07;;;;;;;4.22;1.60;;;;;;;9.73;31.25;98756.34;5052354;28;20055;-67
2023/03/13 09:15:32;;;;;;;1.75;1.60;;;;;;;9.77;30.75;98797.44;5019865;28;20040;-66
2023/03/13 09:17:58;;;;;;;1.90;1.40;;;;;;;9.45;30.91;98807.34;5019915;28;20051;-65
2023/03/13 09:20:24;;;;;;;3.17;1.90;;;;;;;9.33;31.39;98785.66;5019604;28;20055;-66
2023/03/13 09:22:50;;;;;;;2.38;1.48;;;;;;;8.54;32.15;98761.03;5003453;28;20045;-66
2023/03/13 09:25:16;;;;;;;2.15;1.50;;;;;;;9.32;31.24;98770.78;5026021;28;20036;-66
2023/03/13 09:27:41;;;;;;;3.28;1.42;;;;;;;8.90;31.66;98767.59;5020163;28;20507;-66
2023/03/13 09:30:08;;;;;;;3.45;1.80;;;;;;;9.48;31.53;98804.34;5019131;28;20151;-66
2023/03/13 09:32:34;;;;;;;4.72;1.90;;;;;;;10.24;30.48;98784.06;5003314;28;20075;-66
2023/03/13 09:35:00;;;;;;;2.33;1.98;;;;;;;11.90;28.96;98794.19;5019806;28;20511;-66
2023/03/13 09:37:26;;;;;;;1.98;1.60;;;;;;;13.12;26.92;98824.13;5019341;28;20396;-66
2023/03/13 09:39:52;;;;;;;2.15;1.40;;;;;;;14.19;25.56;98802.13;5054169;28;20048;-67
2023/03/13 09:42:28;;;;;;;3.45;1.50;;;;;;;13.50;25.35;98817.38;5023513;28;20066;-66
2023/03/13 09:45:05;;;;;;;5.72;1.88;;;;;;;12.31;26.50;98791.78;5039830;28;20119;-66
2023/03/13 09:47:43;;;;;;;3.75;2.03;;;;;;;11.70;27.55;98823.22;5039517;28;20062;-66
2023/03/13 09:50:22;;;;;;;2.15;1.58;;;;;;;10.42;29.65;98824.44;5039078;28;20052;-66
2023/03/13 09:52:52;;;;;;;2.50;1.60;;;;;;;9.30;31.61;98806.41;5007038;28;20048;-66
2023/03/13 09:55:32;;;;;;;3.03;1.48;;;;;;;8.40;32.64;98798.72;5039135;28;20048;-66
2023/03/13 09:58:10;;;;;;;3.15;2.10;;;;;;;8.12;33.94;98821.97;5022771;28;20048;-66
2023/03/13 10:00:40;;;;;;;2.80;1.70;;;;;;;7.77;34.88;98824.84;5039055;28;20052;-66
2023/03/13 10:03:12;;;;;;;3.63;1.85;;;;;;;8.19;35.07;98822.16;5055534;28;20067;-66
2023/03/13 10:05:56;;;;;;;4.37;1.63;;;;;;;7.74;34.85;98829.63;5039064;28;20040;-66
2023/03/13 10:08:24;;;;;;;1.50;1.40;;;;;;;6.99;37.01;98809.28;5038924;28;20145;-67
2023/03/13 10:11:11;;;;;;;2.77;2.00;;;;;;;7.83;36.02;98818.91;5055775;28;20070;-66
2023/03/13 10:13:41;;;;;;;2.23;1.70;;;;;;;7.53;36.04;98819.47;5021856;28;20040;-66
2023/03/13 10:16:10;;;;;;;4.38;2.28;;;;;;;6.57;37.73;98829.41;5022520;28;20182;-68
2023/03/13 10:18:47;;;;;;;2.13;1.70;;;;;;;7.54;37.17;98784.13;5022192;28;20051;-66
2023/03/13 10:21:17;;;;;;;1.60;1.50;;;;;;;7.34;37.49;98824.16;5055735;28;20045;-71
2023/03/13 10:23:46;;;;;;;2.23;1.90;;;;;;;7.23;37.66;98833.19;5022717;28;20048;-66
2023/03/13 10:26:16;;;;;;;2.00;1.70;;;;;;;7.43;37.42;98831.97;5039175;28;20139;-65
2023/03/13 10:28:42;;;;;;;2.40;1.77;;;;;;;6.47;38.26;98858.50;5022775;28;20177;-65
2023/03/13 10:31:18;;;;;;;2.37;1.40;;;;;;;6.69;38.41;98815.84;5006052;28;20483;-65
2023/03/13 10:33:43;;;;;;;3.20;2.07;;;;;;;5.99;38.63;98823.78;5022248;28;20058;-71
2023/03/13 10:36:11;;;;;;;2.17;1.90;;;;;;;6.35;39.25;98833.34;5006357;28;20045;-66
2023/03/13 10:39:03;;;;;;;1.53;1.43;;;;;;;6.32;39.31;98875.03;5022518;28;20036;-66
2023/03/13 10:41:34;;;;;;;2.33;1.80;;;;;;;6.43;40.05;98851.88;5020846;28;20109;-66
2023/03/13 10:44:04;;;;;;;;;;;;;;;6.58;38.81;98858.28;5022722;28;20052;-66
2023/03/13 10:46:32;;;;;;;2.37;1.90;;;;;;;6.36;40.37;98853.47;5038806;28;19920;-66
2023/03/13 10:49:04;;;;;;;2.70;1.80;;;;;;;6.96;39.15;98866.81;5038240;28;20472;-66
2023/03/13 10:51:38;;;;;;;3.17;1.90;;;;;;;7.04;38.74;98851.88;5020257;28;20036;-66
2023/03/13 10:54:26;;;;;;;2.00;1.80;;;;;;;7.10;38.99;98864.47;5055512;28;20044;-66
2023/03/13 10:57:08;;;;;;;3.47;1.60;;;;;;;6.49;40.14;98887.38;5021481;28;20049;-65
2023/03/13 10:59:39;;;;;;;2.73;1.80;;;;;;;6.33;40.27;98874.88;5022002;28;20697;-66
2023/03/13 11:02:18;;;;;;;3.42;1.73;;;;;;;6.67;40.07;98877.66;5021803;28;20059;-66
2023/03/13 11:04:52;;;;;;;2.67;1.80;;;;;;;6.07;41.55;98881.84;5037980;28;20139;-70
2023/03/13 11:07:37;;;;;;;2.50;1.60;;;;;;;5.67;43.08;98899.78;5022799;28;20071;-66
2023/03/13 11:10:16;;;;;;;2.10;1.87;;;;;;;6.08;44.76;98894.03;5037318;28;20089;-65
2023/03/13 11:12:50;;;;;;;3.63;1.73;;;;;;;6.28;44.78;98900.84;5037402;28;20469;-66
2023/03/13 11:15:21;;;;;;;16.97;2.83;;;;;;;5.90;45.06;98901.09;5038089;28;20055;-67
2023/03/13 11:17:49;;;;;;;;;;;;;;;6.58;44.34;98904.94;5054729;28;20041;-66
2023/03/13 11:20:24;;;;;;;2.70;1.73;;;;;;;6.27;43.89;98920.28;5021361;28;19982;-69
2023/03/13 11:22:53;;;;;;;2.50;1.60;;;;;;;5.99;43.33;98934.47;5021412;28;20056;-65
2023/03/13 11:26:00;;;;;;;2.40;1.93;;;;;;;6.20;43.52;98934.19;5000800;28;20041;-65
2023/03/13 11:28:58;;;;;;;3.10;2.00;;;;;;;6.61;43.75;98918.66;5018110;28;20041;-66
2023/03/13 11:31:58;;;;;;;9.03;2.23;;;;;;;6.04;43.79;98910.31;5020856;28;20111;-66
2023/03/13 11:34:59;;;;;;;5.47;2.20;;;;;;;6.49;44.58;98922.50;5017661;28;20102;-67
2023/03/13 11:37:28;;;;;;;5.03;2.13;;;;;;;6.16;44.70;98935.47;5012639;28;20053;-67
2023/03/13 11:40:16;;;;;;;2.30;1.80;;;;;;;6.28;43.81;98914.03;5017668;28;20473;-67
2023/03/13 11:42:58;;;;;;;5.87;1.87;;;;;;;6.24;43.25;98928.47;5051025;28;20057;-66
2023/03/13 11:45:49;;;;;;;4.80;1.60;;;;;;;6.22;43.42;98945.44;5001353;28;20051;-66
2023/03/13 11:48:33;;;;;;;2.05;1.73;;;;;;;5.85;43.59;98955.19;5001697;28;20055;-71
2023/03/13 11:51:12;;;;;;;2.47;1.70;;;;;;;6.70;43.04;98938.84;5017580;28;20059;-68
2023/03/13 11:54:03;;;;;;;4.23;1.73;;;;;;;6.73;43.66;98941.19;5018176;28;20088;-67
2023/03/13 11:56:42;;;;;;;3.60;1.73;;;;;;;6.75;43.27;98951.59;5001131;28;20484;-66
2023/03/13 11:59:08;;;;;;;2.67;1.83;;;;;;;6.30;43.13;98956.09;5001159;28;20059;-67
2023/03/13 12:01:39;;;;;;;2.10;1.90;;;;;;;6.79;43.48;98956.44;5016789;28;20049;-67
2023/03/13 12:04:05;;;;;;;4.07;1.70;;;;;;;6.89;44.19;98954.53;5016756;28;20314;-66
2023/03/13 12:06:54;;;;;;;3.50;1.60;;;;;;;7.20;44.80;98954.13;5032164;28;20543;-67